createdAt,value
2018-06-19T00:00:17.782Z,13.18
2018-06-19T00:01:17.801Z,13.19
2018-06-19T00:02:18.066Z,13.16
2018-06-19T00:03:18.337Z,13.19
2018-06-19T00:04:17.609Z,13.18
2018-06-19T00:05:17.879Z,13.25
2018-06-19T00:06:18.153Z,13.26
2018-06-19T00:07:18.413Z,13.23
2018-06-19T00:08:17.677Z,13.23
2018-06-19T00:09:17.947Z,13.23
2018-06-19T00:10:18.219Z,13.22
2018-06-19T00:11:18.335Z,13.21
2018-06-19T00:12:17.590Z,13.19
2018-06-19T00:13:17.852Z,13.15
2018-06-19T00:14:18.104Z,13.14
2018-06-19T00:15:18.365Z,13.09
2018-06-19T00:16:17.629Z,13.08
2018-06-19T00:17:17.891Z,13.06
2018-06-19T00:18:18.150Z,13.06
2018-06-19T00:19:18.428Z,13.04
2018-06-19T00:20:17.706Z,13.05
2018-06-19T00:21:17.732Z,13.04
2018-06-19T00:22:17.994Z,13.01
2018-06-19T00:23:18.253Z,13.01
2018-06-19T00:24:17.518Z,12.94
2018-06-19T00:25:17.778Z,12.87
2018-06-19T00:26:18.052Z,12.82
2018-06-19T00:27:18.305Z,12.79
2018-06-19T00:28:17.567Z,12.77
2018-06-19T00:29:17.831Z,12.75
2018-06-19T00:30:18.097Z,12.71
2018-06-19T00:31:18.142Z,12.71
2018-06-19T00:32:18.398Z,12.70
2018-06-19T00:33:17.674Z,12.67
2018-06-19T00:34:17.931Z,12.66
2018-06-19T00:35:18.195Z,12.70
2018-06-19T00:36:18.464Z,12.67
2018-06-19T00:37:17.725Z,12.66
2018-06-19T00:38:17.994Z,12.64
2018-06-19T00:39:18.249Z,12.66
2018-06-19T00:40:17.523Z,12.63
2018-06-19T00:41:17.541Z,12.61
2018-06-19T00:42:17.814Z,12.63
2018-06-19T00:43:18.071Z,12.63
2018-06-19T00:44:18.571Z,12.58
2018-06-19T00:45:17.836Z,12.61
2018-06-19T00:46:18.108Z,12.57
2018-06-19T00:47:18.368Z,12.56
2018-06-19T00:48:17.626Z,12.56
2018-06-19T00:49:17.881Z,12.57
2018-06-19T00:50:18.139Z,12.60
2018-06-19T00:51:18.191Z,12.57
2018-06-19T00:52:18.446Z,12.57
2018-06-19T00:53:17.710Z,12.57
2018-06-19T00:54:17.973Z,12.58
2018-06-19T00:55:18.235Z,12.58
2018-06-19T00:56:17.497Z,12.60
2018-06-19T00:57:17.758Z,12.60
2018-06-19T00:58:18.023Z,12.57
2018-06-19T00:59:18.282Z,12.56
2018-06-19T01:00:17.547Z,12.56
2018-06-19T01:01:17.610Z,12.49
2018-06-19T01:02:17.867Z,12.47
2018-06-19T01:03:18.126Z,12.46
2018-06-19T01:04:18.401Z,12.46
2018-06-19T01:05:17.665Z,12.46
2018-06-19T01:06:17.928Z,12.46
2018-06-19T01:07:18.187Z,12.41
2018-06-19T01:08:18.444Z,12.40
2018-06-19T01:09:17.709Z,12.40
2018-06-19T01:10:17.959Z,12.37
2018-06-19T01:11:18.025Z,12.33
2018-06-19T01:12:18.285Z,12.30
2018-06-19T01:13:17.544Z,12.28
2018-06-19T01:14:17.807Z,12.29
2018-06-19T01:15:18.072Z,12.23
2018-06-19T01:16:18.333Z,12.23
2018-06-19T01:17:17.585Z,12.22
2018-06-19T01:18:17.845Z,12.23
2018-06-19T01:19:18.107Z,12.22
2018-06-19T01:20:18.681Z,12.19
2018-06-19T01:21:18.410Z,12.18
2018-06-19T01:22:17.672Z,12.18
2018-06-19T01:23:17.936Z,12.18
2018-06-19T01:24:18.199Z,12.15
2018-06-19T01:25:17.453Z,12.12
2018-06-19T01:26:17.721Z,12.11
2018-06-19T01:27:17.978Z,12.12
2018-06-19T01:28:18.232Z,12.11
2018-06-19T01:29:17.489Z,12.09
2018-06-19T01:30:17.760Z,12.08
2018-06-19T01:31:17.807Z,12.06
2018-06-19T01:32:18.066Z,12.06
2018-06-19T01:33:18.319Z,12.05
2018-06-19T01:34:17.579Z,12.02
2018-06-19T01:35:17.844Z,12.02
2018-06-19T01:36:18.101Z,12.03
2018-06-19T01:37:18.365Z,12.03
2018-06-19T01:38:17.715Z,12.02
2018-06-19T01:39:18.193Z,11.99
2018-06-19T01:40:18.487Z,12.02
2018-06-19T01:41:17.496Z,12.03
2018-06-19T01:42:17.759Z,12.01
2018-06-19T01:43:18.033Z,12.01
2018-06-19T01:44:18.298Z,12.03
2018-06-19T01:45:17.560Z,12.08
2018-06-19T01:46:17.829Z,12.06
2018-06-19T01:47:18.096Z,12.13
2018-06-19T01:48:18.364Z,12.16
2018-06-19T01:49:17.627Z,12.20
2018-06-19T01:50:17.888Z,12.20
2018-06-19T01:51:17.940Z,12.29
2018-06-19T01:52:18.202Z,12.32
2018-06-19T01:53:18.457Z,12.33
2018-06-19T01:54:17.724Z,12.37
2018-06-19T01:55:17.974Z,12.39
2018-06-19T01:56:18.229Z,12.40
2018-06-19T01:57:17.508Z,12.41
2018-06-19T01:58:17.762Z,12.44
2018-06-19T01:59:18.036Z,12.46
2018-06-19T02:00:18.601Z,12.51
2018-06-19T02:01:18.361Z,12.53
2018-06-19T02:02:17.643Z,12.63
2018-06-19T02:03:17.908Z,12.64
2018-06-19T02:04:18.179Z,12.68
2018-06-19T02:05:18.436Z,12.71
2018-06-19T02:06:17.691Z,12.72
2018-06-19T02:07:17.951Z,12.72
2018-06-19T02:08:18.210Z,12.78
2018-06-19T02:09:17.462Z,12.78
2018-06-19T02:10:17.736Z,12.79
2018-06-19T02:11:17.776Z,12.79
2018-06-19T02:12:18.039Z,12.82
2018-06-19T02:13:18.298Z,12.81
2018-06-19T02:14:17.557Z,12.82
2018-06-19T02:15:17.827Z,12.85
2018-06-19T02:16:18.085Z,12.85
2018-06-19T02:17:18.343Z,12.89
2018-06-19T02:18:18.002Z,12.88
2018-06-19T02:19:18.269Z,12.91
2018-06-19T02:20:17.534Z,12.87
2018-06-19T02:21:17.584Z,12.89
2018-06-19T02:22:17.845Z,12.94
2018-06-19T02:23:18.105Z,13.01
2018-06-19T02:24:18.363Z,13.05
2018-06-19T02:25:17.677Z,13.06
2018-06-19T02:26:17.945Z,13.11
2018-06-19T02:27:18.203Z,13.11
2018-06-19T02:28:17.472Z,13.08
2018-06-19T02:29:17.730Z,13.06
2018-06-19T02:30:17.998Z,13.05
2018-06-19T02:31:18.051Z,13.05
2018-06-19T02:32:17.859Z,13.05
2018-06-19T02:33:18.120Z,13.06
2018-06-19T02:34:18.405Z,13.12
2018-06-19T02:35:17.679Z,13.14
2018-06-19T02:36:17.943Z,13.12
2018-06-19T02:37:18.202Z,13.16
2018-06-19T02:38:17.463Z,13.12
2018-06-19T02:39:17.726Z,13.14
2018-06-19T02:40:17.995Z,13.12
2018-06-19T02:41:18.038Z,13.14
2018-06-19T02:42:18.318Z,13.15
2018-06-19T02:43:17.603Z,13.14
2018-06-19T02:44:17.880Z,13.15
2018-06-19T02:45:18.158Z,13.16
2018-06-19T02:46:18.438Z,13.16
2018-06-19T02:47:17.704Z,13.18
2018-06-19T02:48:17.969Z,13.16
2018-06-19T02:49:18.240Z,13.14
2018-06-19T02:50:17.819Z,13.16
2018-06-19T02:51:17.542Z,13.16
2018-06-19T02:52:17.807Z,13.16
2018-06-19T02:53:18.069Z,13.16
2018-06-19T02:54:18.337Z,13.14
2018-06-19T02:55:17.592Z,13.12
2018-06-19T02:56:17.852Z,13.19
2018-06-19T02:57:18.130Z,13.16
2018-06-19T02:58:18.387Z,13.21
2018-06-19T02:59:17.653Z,13.21
2018-06-19T03:00:18.108Z,13.27
2018-06-19T03:01:17.963Z,13.26
2018-06-19T03:02:18.231Z,13.23
2018-06-19T03:03:17.498Z,13.26
2018-06-19T03:04:17.765Z,13.27
2018-06-19T03:05:18.024Z,13.34
2018-06-19T03:06:18.279Z,13.33
2018-06-19T03:07:17.536Z,13.36
2018-06-19T03:08:17.797Z,13.36
2018-06-19T03:09:18.059Z,13.37
2018-06-19T03:10:18.325Z,13.40
2018-06-19T03:11:18.375Z,13.37
2018-06-19T03:12:17.635Z,13.39
2018-06-19T03:13:17.895Z,13.40
2018-06-19T03:14:18.155Z,13.39
2018-06-19T03:15:18.411Z,13.40
2018-06-19T03:16:17.681Z,13.43
2018-06-19T03:17:17.951Z,13.39
2018-06-19T03:18:18.208Z,13.37
2018-06-19T03:19:17.485Z,13.39
2018-06-19T03:20:17.742Z,13.39
2018-06-19T03:21:17.785Z,13.40
2018-06-19T03:22:18.050Z,13.39
2018-06-19T03:23:18.309Z,13.44
2018-06-19T03:24:17.566Z,13.49
2018-06-19T03:25:17.827Z,13.51
2018-06-19T03:26:18.094Z,13.50
2018-06-19T03:27:18.343Z,13.49
2018-06-19T03:28:17.607Z,13.50
2018-06-19T03:29:17.868Z,13.51
2018-06-19T03:30:18.190Z,13.44
2018-06-19T03:31:18.176Z,13.43
2018-06-19T03:32:18.435Z,13.40
2018-06-19T03:33:17.692Z,13.43
2018-06-19T03:34:17.954Z,13.42
2018-06-19T03:35:18.219Z,13.44
2018-06-19T03:36:17.477Z,13.44
2018-06-19T03:37:17.735Z,13.49
2018-06-19T03:38:17.999Z,13.53
2018-06-19T03:39:18.260Z,13.51
2018-06-19T03:40:17.532Z,13.53
2018-06-19T03:41:17.571Z,13.54
2018-06-19T03:42:17.833Z,13.57
2018-06-19T03:43:18.095Z,13.61
2018-06-19T03:44:18.355Z,13.58
2018-06-19T03:45:17.619Z,13.55
2018-06-19T03:46:17.875Z,13.60
2018-06-19T03:47:18.149Z,13.63
2018-06-19T03:48:18.406Z,13.63
2018-06-19T03:49:17.666Z,13.67
2018-06-19T03:50:17.941Z,13.68
2018-06-19T03:51:17.980Z,13.67
2018-06-19T03:52:18.244Z,13.67
2018-06-19T03:53:17.504Z,13.68
2018-06-19T03:54:17.773Z,13.68
2018-06-19T03:55:18.032Z,13.67
2018-06-19T03:56:18.293Z,13.64
2018-06-19T03:57:17.561Z,13.68
2018-06-19T03:58:17.820Z,13.70
2018-06-19T03:59:18.085Z,13.71
2018-06-19T04:00:18.348Z,13.70
2018-06-19T04:01:18.436Z,13.76
2018-06-19T04:02:17.796Z,13.76
2018-06-19T04:03:18.056Z,13.80
2018-06-19T04:04:18.320Z,13.81
2018-06-19T04:05:17.572Z,13.84
2018-06-19T04:06:17.834Z,13.84
2018-06-19T04:07:18.100Z,13.87
2018-06-19T04:08:18.361Z,13.90
2018-06-19T04:09:17.618Z,13.88
2018-06-19T04:10:17.888Z,13.90
2018-06-19T04:11:17.931Z,13.87
2018-06-19T04:12:18.194Z,13.92
2018-06-19T04:13:18.448Z,13.97
2018-06-19T04:14:17.713Z,14.02
2018-06-19T04:15:18.028Z,14.05
2018-06-19T04:16:18.281Z,14.07
2018-06-19T04:17:17.583Z,14.08
2018-06-19T04:18:18.425Z,14.11
2018-06-19T04:19:17.692Z,14.13
2018-06-19T04:20:17.964Z,14.19
2018-06-19T04:21:18.005Z,14.23
2018-06-19T04:22:18.268Z,14.29
2018-06-19T04:23:17.526Z,14.35
2018-06-19T04:24:17.788Z,14.39
2018-06-19T04:25:18.066Z,14.40
2018-06-19T04:26:18.350Z,14.46
2018-06-19T04:27:17.617Z,14.49
2018-06-19T04:28:17.873Z,14.50
2018-06-19T04:29:18.136Z,14.55
2018-06-19T04:30:18.407Z,14.56
2018-06-19T04:31:18.429Z,14.66
2018-06-19T04:32:17.685Z,14.64
2018-06-19T04:33:17.981Z,14.57
2018-06-19T04:34:18.372Z,14.60
2018-06-19T04:35:17.624Z,14.59
2018-06-19T04:36:17.885Z,14.60
2018-06-19T04:37:18.144Z,14.66
2018-06-19T04:38:18.405Z,14.64
2018-06-19T04:39:17.659Z,14.63
2018-06-19T04:40:17.925Z,14.63
2018-06-19T04:41:17.954Z,14.64
2018-06-19T04:42:18.204Z,14.64
2018-06-19T04:43:17.458Z,14.55
2018-06-19T04:44:17.724Z,14.57
2018-06-19T04:45:17.976Z,14.63
2018-06-19T04:46:18.239Z,14.62
2018-06-19T04:47:17.501Z,14.66
2018-06-19T04:48:17.764Z,14.68
2018-06-19T04:49:18.021Z,14.73
2018-06-19T04:50:18.289Z,14.80
2018-06-19T04:51:18.340Z,14.84
2018-06-19T04:52:17.607Z,14.88
2018-06-19T04:53:17.873Z,14.97
2018-06-19T04:54:18.135Z,14.97
2018-06-19T04:55:18.414Z,15.02
2018-06-19T04:56:17.676Z,15.05
2018-06-19T04:57:17.941Z,15.14
2018-06-19T04:58:18.193Z,15.15
2018-06-19T04:59:18.478Z,15.21
2018-06-19T05:00:17.778Z,15.23
2018-06-19T05:01:17.811Z,15.21
2018-06-19T05:02:18.068Z,15.22
2018-06-19T05:03:18.328Z,15.26
2018-06-19T05:04:17.592Z,15.29
2018-06-19T05:05:17.870Z,15.33
2018-06-19T05:06:18.126Z,15.38
2018-06-19T05:07:18.386Z,15.39
2018-06-19T05:08:17.646Z,15.45
2018-06-19T05:09:17.908Z,15.42
2018-06-19T05:10:18.178Z,15.41
2018-06-19T05:11:18.206Z,15.43
2018-06-19T05:12:17.468Z,15.52
2018-06-19T05:13:17.724Z,15.53
2018-06-19T05:14:17.993Z,15.57
2018-06-19T05:15:18.256Z,15.57
2018-06-19T05:16:17.525Z,15.59
2018-06-19T05:17:17.789Z,15.60
2018-06-19T05:18:18.053Z,15.70
2018-06-19T05:19:18.307Z,15.74
2018-06-19T05:20:17.599Z,15.73
2018-06-19T05:21:17.631Z,15.74
2018-06-19T05:22:17.895Z,15.74
2018-06-19T05:23:18.156Z,15.78
2018-06-19T05:24:18.408Z,15.80
2018-06-19T05:25:17.670Z,15.80
2018-06-19T05:26:17.934Z,15.80
2018-06-19T05:27:18.197Z,15.80
2018-06-19T05:28:18.449Z,15.82
2018-06-19T05:29:17.709Z,15.82
2018-06-19T05:30:18.063Z,15.82
2018-06-19T05:31:18.032Z,15.81
2018-06-19T05:32:18.290Z,15.80
2018-06-19T05:33:17.546Z,15.80
2018-06-19T05:34:17.807Z,15.74
2018-06-19T05:35:18.084Z,15.71
2018-06-19T05:36:18.374Z,15.73
2018-06-19T05:37:17.643Z,15.70
2018-06-19T05:38:17.925Z,15.70
2018-06-19T05:39:18.195Z,15.69
2018-06-19T05:40:17.475Z,15.71
2018-06-19T05:41:17.504Z,15.73
2018-06-19T05:42:17.778Z,15.71
2018-06-19T05:43:18.039Z,15.74
2018-06-19T05:44:18.308Z,15.77
2018-06-19T05:45:17.581Z,15.80
2018-06-19T05:46:17.909Z,15.81
2018-06-19T05:47:18.291Z,15.87
2018-06-19T05:48:17.559Z,15.90
2018-06-19T05:49:17.815Z,15.95
2018-06-19T05:50:18.088Z,15.95
2018-06-19T05:51:18.121Z,16.04
2018-06-19T05:52:18.376Z,16.04
2018-06-19T05:53:17.643Z,16.14
2018-06-19T05:54:17.910Z,16.17
2018-06-19T05:55:18.163Z,16.22
2018-06-19T05:56:18.427Z,16.27
2018-06-19T05:57:17.681Z,16.31
2018-06-19T05:58:17.944Z,16.46
2018-06-19T05:59:18.210Z,16.52
2018-06-19T06:00:17.493Z,16.57
2018-06-19T06:01:17.543Z,16.73
2018-06-19T06:02:17.798Z,16.98
2018-06-19T06:03:18.063Z,17.11
2018-06-19T06:04:18.314Z,17.17
2018-06-19T06:05:17.624Z,17.21
2018-06-19T06:06:17.882Z,17.26
2018-06-19T06:07:18.148Z,17.31
2018-06-19T06:08:18.402Z,17.33
2018-06-19T06:09:17.660Z,17.42
2018-06-19T06:10:17.935Z,17.45
2018-06-19T06:11:17.998Z,17.50
2018-06-19T06:12:18.317Z,17.70
2018-06-19T06:13:17.575Z,17.90
2018-06-19T06:14:17.829Z,17.91
2018-06-19T06:15:18.096Z,18.08
2018-06-19T06:16:18.374Z,18.17
2018-06-19T06:17:17.635Z,18.49
2018-06-19T06:18:17.889Z,18.60
2018-06-19T06:19:18.152Z,18.88
2018-06-19T06:20:18.412Z,19.07
2018-06-19T06:21:18.451Z,19.22
2018-06-19T06:22:17.714Z,19.32
2018-06-19T06:23:17.988Z,19.38
2018-06-19T06:24:18.244Z,19.63
2018-06-19T06:25:17.502Z,19.76
2018-06-19T06:26:17.762Z,19.45
2018-06-19T06:27:18.169Z,19.35
2018-06-19T06:28:18.432Z,19.44
2018-06-19T06:29:17.683Z,19.42
2018-06-19T06:30:17.951Z,19.49
2018-06-19T06:31:18.015Z,19.56
2018-06-19T06:32:18.341Z,19.39
2018-06-19T06:33:17.606Z,19.39
2018-06-19T06:34:17.866Z,19.49
2018-06-19T06:35:18.119Z,19.38
2018-06-19T06:36:18.444Z,19.30
2018-06-19T06:37:17.696Z,19.30
2018-06-19T06:38:17.967Z,19.34
2018-06-19T06:39:18.237Z,19.17
2018-06-19T06:40:17.515Z,19.20
2018-06-19T06:41:17.551Z,19.27
2018-06-19T06:42:17.812Z,19.39
2018-06-19T06:43:18.069Z,19.39
2018-06-19T06:44:18.333Z,19.46
2018-06-19T06:45:17.596Z,19.46
2018-06-19T06:46:17.855Z,19.63
2018-06-19T06:47:18.112Z,19.73
2018-06-19T06:48:18.387Z,19.81
2018-06-19T06:49:17.653Z,19.89
2018-06-19T06:50:18.065Z,19.87
2018-06-19T06:51:17.954Z,19.73
2018-06-19T06:52:18.218Z,19.86
2018-06-19T06:53:17.476Z,19.83
2018-06-19T06:54:17.737Z,19.73
2018-06-19T06:55:18.012Z,19.83
2018-06-19T06:56:18.269Z,19.81
2018-06-19T06:57:17.526Z,19.89
2018-06-19T06:58:17.785Z,19.58
2018-06-19T06:59:18.045Z,19.55
2018-06-19T07:00:18.310Z,19.48
2018-06-19T07:01:18.450Z,19.42
2018-06-19T07:02:18.047Z,19.59
2018-06-19T07:03:18.304Z,19.63
2018-06-19T07:04:17.559Z,19.53
2018-06-19T07:05:17.817Z,19.46
2018-06-19T07:06:18.065Z,19.58
2018-06-19T07:07:18.332Z,19.60
2018-06-19T07:08:17.591Z,19.76
2018-06-19T07:09:17.850Z,19.83
2018-06-19T07:10:18.275Z,19.81
2018-06-19T07:11:18.217Z,19.84
2018-06-19T07:12:17.482Z,19.91
2018-06-19T07:13:17.751Z,19.96
2018-06-19T07:14:18.002Z,19.91
2018-06-19T07:15:18.272Z,20.06
2018-06-19T07:16:17.526Z,20.13
2018-06-19T07:17:17.784Z,20.20
2018-06-19T07:18:18.053Z,20.28
2018-06-19T07:19:18.327Z,20.24
2018-06-19T07:20:17.601Z,20.11
2018-06-19T07:21:17.656Z,20.14
2018-06-19T07:22:17.910Z,20.25
2018-06-19T07:23:18.168Z,20.42
2018-06-19T07:24:18.434Z,20.42
2018-06-19T07:25:17.691Z,20.17
2018-06-19T07:26:17.954Z,20.04
2018-06-19T07:27:18.213Z,20.10
2018-06-19T07:28:17.472Z,20.13
2018-06-19T07:29:17.742Z,19.94
2018-06-19T07:30:18.006Z,19.96
2018-06-19T07:31:18.038Z,20.08
2018-06-19T07:32:18.319Z,20.17
2018-06-19T07:33:17.577Z,20.18
2018-06-19T07:34:17.841Z,20.03
2018-06-19T07:35:18.099Z,19.97
2018-06-19T07:36:18.369Z,20.03
2018-06-19T07:37:17.640Z,20.10
2018-06-19T07:38:17.945Z,20.16
2018-06-19T07:39:18.226Z,20.13
2018-06-19T07:40:17.492Z,20.14
2018-06-19T07:41:17.530Z,20.18
2018-06-19T07:42:17.800Z,20.13
2018-06-19T07:43:18.059Z,20.59
2018-06-19T07:44:18.318Z,20.76
2018-06-19T07:45:17.578Z,21.10
2018-06-19T07:46:17.842Z,21.23
2018-06-19T07:47:18.106Z,21.42
2018-06-19T07:48:18.365Z,21.34
2018-06-19T07:49:17.629Z,21.30
2018-06-19T07:50:17.898Z,21.34
2018-06-19T07:51:17.939Z,21.31
2018-06-19T07:52:18.201Z,21.15
2018-06-19T07:53:18.466Z,21.23
2018-06-19T07:54:17.721Z,20.89
2018-06-19T07:55:17.978Z,20.78
2018-06-19T07:56:18.230Z,20.63
2018-06-19T07:57:17.534Z,20.60
2018-06-19T07:58:17.868Z,20.66
2018-06-19T07:59:18.139Z,20.69
2018-06-19T08:00:18.409Z,20.92
2018-06-19T08:01:18.438Z,21.04
2018-06-19T08:02:17.703Z,21.18
2018-06-19T08:03:17.968Z,21.34
2018-06-19T08:04:18.226Z,21.34
2018-06-19T08:05:17.489Z,21.30
2018-06-19T08:06:17.774Z,21.30
2018-06-19T08:07:18.044Z,21.31
2018-06-19T08:08:18.304Z,21.04
2018-06-19T08:09:17.568Z,21.00
2018-06-19T08:10:17.846Z,21.02
2018-06-19T08:11:17.878Z,20.82
2018-06-19T08:12:18.145Z,20.89
2018-06-19T08:13:18.403Z,20.87
2018-06-19T08:14:17.661Z,20.82
2018-06-19T08:15:17.914Z,20.94
2018-06-19T08:16:18.176Z,21.00
2018-06-19T08:17:18.437Z,21.03
2018-06-19T08:18:17.700Z,21.10
2018-06-19T08:19:17.959Z,21.15
2018-06-19T08:20:18.223Z,21.47
2018-06-19T08:21:18.260Z,21.61
2018-06-19T08:22:17.532Z,21.25
2018-06-19T08:23:17.793Z,21.44
2018-06-19T08:24:18.055Z,21.86
2018-06-19T08:25:18.325Z,22.28
2018-06-19T08:26:17.757Z,22.17
2018-06-19T08:27:18.023Z,21.91
2018-06-19T08:28:18.282Z,21.29
2018-06-19T08:29:17.536Z,21.23
2018-06-19T08:30:17.801Z,20.97
2018-06-19T08:31:17.840Z,20.92
2018-06-19T08:32:18.103Z,21.18
2018-06-19T08:33:18.367Z,21.18
2018-06-19T08:34:17.629Z,21.09
2018-06-19T08:35:17.892Z,21.07
2018-06-19T08:36:18.228Z,21.37
2018-06-19T08:37:17.579Z,21.40
2018-06-19T08:38:17.837Z,21.70
2018-06-19T08:39:18.096Z,21.96
2018-06-19T08:40:18.379Z,22.00
2018-06-19T08:41:18.394Z,21.99
2018-06-19T08:42:17.659Z,22.05
2018-06-19T08:43:17.923Z,21.99
2018-06-19T08:44:18.185Z,21.66
2018-06-19T08:45:18.441Z,21.62
2018-06-19T08:46:17.700Z,21.40
2018-06-19T08:47:17.962Z,21.30
2018-06-19T08:48:18.277Z,21.31
2018-06-19T08:49:17.546Z,21.14
2018-06-19T08:50:17.828Z,21.14
2018-06-19T08:51:17.845Z,21.06
2018-06-19T08:52:18.103Z,21.30
2018-06-19T08:53:18.363Z,21.41
2018-06-19T08:54:17.657Z,21.25
2018-06-19T08:55:18.030Z,21.23
2018-06-19T08:56:18.421Z,21.21
2018-06-19T08:57:17.677Z,21.29
2018-06-19T08:58:17.933Z,21.49
2018-06-19T08:59:18.196Z,21.61
2018-06-19T09:00:18.490Z,21.65
2018-06-19T09:01:17.508Z,21.29
2018-06-19T09:02:17.779Z,21.30
2018-06-19T09:03:18.045Z,21.47
2018-06-19T09:04:18.314Z,21.54
2018-06-19T09:05:17.580Z,21.72
2018-06-19T09:06:17.860Z,21.72
2018-06-19T09:07:18.122Z,21.69
2018-06-19T09:08:18.384Z,21.70
2018-06-19T09:09:17.648Z,21.41
2018-06-19T09:10:17.908Z,21.34
2018-06-19T09:11:17.971Z,21.48
2018-06-19T09:12:18.227Z,21.48
2018-06-19T09:13:17.552Z,21.52
2018-06-19T09:14:17.881Z,21.48
2018-06-19T09:15:18.148Z,21.44
2018-06-19T09:16:18.430Z,21.45
2018-06-19T09:17:17.671Z,21.47
2018-06-19T09:18:17.928Z,21.33
2018-06-19T09:19:18.198Z,21.27
2018-06-19T09:20:18.497Z,21.27
2018-06-19T09:21:17.510Z,21.45
2018-06-19T09:22:17.768Z,21.48
2018-06-19T09:23:18.024Z,21.45
2018-06-19T09:24:18.356Z,21.45
2018-06-19T09:25:17.705Z,21.40
2018-06-19T09:26:17.969Z,21.52
2018-06-19T09:27:18.215Z,21.51
2018-06-19T09:28:17.471Z,21.41
2018-06-19T09:29:17.729Z,21.44
2018-06-19T09:30:17.994Z,21.40
2018-06-19T09:31:18.047Z,21.33
2018-06-19T09:32:18.372Z,21.37
2018-06-19T09:33:17.621Z,21.41
2018-06-19T09:34:17.877Z,21.47
2018-06-19T09:35:18.149Z,21.58
2018-06-19T09:36:18.415Z,21.31
2018-06-19T09:37:17.688Z,21.40
2018-06-19T09:38:17.953Z,21.27
2018-06-19T09:39:18.210Z,21.20
2018-06-19T09:40:18.484Z,21.29
2018-06-19T09:41:17.530Z,21.38
2018-06-19T09:42:17.817Z,21.49
2018-06-19T09:43:18.073Z,21.75
2018-06-19T09:44:18.369Z,21.86
2018-06-19T09:45:17.632Z,21.89
2018-06-19T09:46:17.890Z,21.73
2018-06-19T09:47:18.148Z,21.82
2018-06-19T09:48:18.413Z,21.82
2018-06-19T09:49:17.677Z,22.13
2018-06-19T09:50:17.940Z,22.40
2018-06-19T09:51:17.986Z,22.61
2018-06-19T09:52:18.250Z,22.71
2018-06-19T09:53:17.532Z,22.45
2018-06-19T09:54:17.800Z,22.53
2018-06-19T09:55:18.056Z,22.31
2018-06-19T09:56:18.318Z,22.30
2018-06-19T09:57:17.587Z,22.37
2018-06-19T09:58:17.871Z,22.51
2018-06-19T09:59:18.257Z,22.67
2018-06-19T10:00:17.640Z,22.53
2018-06-19T10:01:17.675Z,22.72
2018-06-19T10:02:17.928Z,22.34
2018-06-19T10:03:18.189Z,22.13
2018-06-19T10:04:18.452Z,22.19
2018-06-19T10:05:17.713Z,22.21
2018-06-19T10:06:18.035Z,22.34
2018-06-19T10:07:18.355Z,22.19
2018-06-19T10:08:17.618Z,22.10
2018-06-19T10:09:17.885Z,22.06
2018-06-19T10:10:18.141Z,22.24
2018-06-19T10:11:18.192Z,22.02
2018-06-19T10:12:18.545Z,21.96
2018-06-19T10:13:18.081Z,22.07
2018-06-19T10:14:18.363Z,22.30
2018-06-19T10:15:17.620Z,22.30
2018-06-19T10:16:17.883Z,22.27
2018-06-19T10:17:18.146Z,22.27
2018-06-19T10:18:18.418Z,22.24
2018-06-19T10:19:17.678Z,22.40
2018-06-19T10:20:17.946Z,22.38
2018-06-19T10:21:17.986Z,22.40
2018-06-19T10:22:18.238Z,22.78
2018-06-19T10:23:17.499Z,22.99
2018-06-19T10:24:17.763Z,23.19
2018-06-19T10:25:18.032Z,23.18
2018-06-19T10:26:18.288Z,23.23
2018-06-19T10:27:17.551Z,23.36
2018-06-19T10:28:17.812Z,23.32
2018-06-19T10:29:18.113Z,23.33
2018-06-19T10:30:18.399Z,22.83
2018-06-19T10:31:18.419Z,22.50
2018-06-19T10:32:17.677Z,22.54
2018-06-19T10:33:17.939Z,22.54
2018-06-19T10:34:18.200Z,22.75
2018-06-19T10:35:18.454Z,22.70
2018-06-19T10:36:17.727Z,22.61
2018-06-19T10:37:18.003Z,22.65
2018-06-19T10:38:18.285Z,22.96
2018-06-19T10:39:17.544Z,22.98
2018-06-19T10:40:17.941Z,23.33
2018-06-19T10:41:17.847Z,22.91
2018-06-19T10:42:18.107Z,22.61
2018-06-19T10:43:18.364Z,22.65
2018-06-19T10:44:17.625Z,22.47
2018-06-19T10:45:17.884Z,22.51
2018-06-19T10:46:18.147Z,22.58
2018-06-19T10:47:18.418Z,22.58
2018-06-19T10:48:17.680Z,22.82
2018-06-19T10:49:17.938Z,22.71
2018-06-19T10:50:18.230Z,22.53
2018-06-19T10:51:18.242Z,22.75
2018-06-19T10:52:17.501Z,22.99
2018-06-19T10:53:17.811Z,22.91
2018-06-19T10:54:18.068Z,23.10
2018-06-19T10:55:18.334Z,23.23
2018-06-19T10:56:17.594Z,23.27
2018-06-19T10:57:17.859Z,23.32
2018-06-19T10:58:18.136Z,23.26
2018-06-19T10:59:18.396Z,23.18
2018-06-19T11:00:17.677Z,22.99
2018-06-19T11:01:17.727Z,23.10
2018-06-19T11:02:17.990Z,23.30
2018-06-19T11:03:18.251Z,23.39
2018-06-19T11:04:17.515Z,23.27
2018-06-19T11:05:17.779Z,22.72
2018-06-19T11:06:18.037Z,22.78
2018-06-19T11:07:18.359Z,22.86
2018-06-19T11:08:17.905Z,22.81
2018-06-19T11:09:18.312Z,22.95
2018-06-19T11:10:17.596Z,22.92
2018-06-19T11:11:17.628Z,22.76
2018-06-19T11:12:17.887Z,23.10
2018-06-19T11:13:18.152Z,23.10
2018-06-19T11:14:18.401Z,23.07
2018-06-19T11:15:17.676Z,23.32
2018-06-19T11:16:17.941Z,23.57
2018-06-19T11:17:18.207Z,23.78
2018-06-19T11:18:18.455Z,23.40
2018-06-19T11:19:17.713Z,23.34
2018-06-19T11:20:17.987Z,23.27
2018-06-19T11:21:18.065Z,23.07
2018-06-19T11:22:18.352Z,23.09
2018-06-19T11:23:17.621Z,23.06
2018-06-19T11:24:17.877Z,23.12
2018-06-19T11:25:18.139Z,23.25
2018-06-19T11:26:18.401Z,23.29
2018-06-19T11:27:17.670Z,23.56
2018-06-19T11:28:17.939Z,23.37
2018-06-19T11:29:18.204Z,23.60
2018-06-19T11:30:18.491Z,23.50
2018-06-19T11:31:17.549Z,23.15
2018-06-19T11:32:17.811Z,23.02
2018-06-19T11:33:18.076Z,23.18
2018-06-19T11:34:18.342Z,23.13
2018-06-19T11:35:17.609Z,23.61
2018-06-19T11:36:17.878Z,23.61
2018-06-19T11:37:18.145Z,23.20
2018-06-19T11:38:18.412Z,23.34
2018-06-19T11:39:17.674Z,23.53
2018-06-19T11:40:17.945Z,23.60
2018-06-19T11:41:17.968Z,23.60
2018-06-19T11:42:18.236Z,24.19
2018-06-19T11:43:17.500Z,23.94
2018-06-19T11:44:17.762Z,23.94
2018-06-19T11:45:18.022Z,23.69
2018-06-19T11:46:18.293Z,23.41
2018-06-19T11:47:17.563Z,23.84
2018-06-19T11:48:17.825Z,23.98
2018-06-19T11:49:18.174Z,23.96
2018-06-19T11:50:17.667Z,23.99
2018-06-19T11:51:17.781Z,24.22
2018-06-19T11:52:18.113Z,23.98
2018-06-19T11:53:18.370Z,23.98
2018-06-19T11:54:17.629Z,23.41
2018-06-19T11:55:17.903Z,23.81
2018-06-19T11:56:18.170Z,23.40
2018-06-19T11:57:18.449Z,23.51
2018-06-19T11:58:17.714Z,23.41
2018-06-19T11:59:17.977Z,23.30
2018-06-19T12:00:18.255Z,23.30
2018-06-19T12:01:18.282Z,23.48
2018-06-19T12:02:17.544Z,23.54
2018-06-19T12:03:17.809Z,23.73
2018-06-19T12:04:18.064Z,23.26
2018-06-19T12:05:18.324Z,23.25
2018-06-19T12:06:17.586Z,23.87
2018-06-19T12:07:17.846Z,24.02
2018-06-19T12:08:18.105Z,23.98
2018-06-19T12:09:18.371Z,23.91
2018-06-19T12:10:17.645Z,23.92
2018-06-19T12:11:17.685Z,24.09
2018-06-19T12:12:17.954Z,24.09
2018-06-19T12:13:18.220Z,23.67
2018-06-19T12:14:17.480Z,23.60
2018-06-19T12:15:17.735Z,23.62
2018-06-19T12:16:18.002Z,23.29
2018-06-19T12:17:18.266Z,23.44
2018-06-19T12:18:17.522Z,23.40
2018-06-19T12:19:17.790Z,23.61
2018-06-19T12:20:18.062Z,23.65
2018-06-19T12:21:18.109Z,23.64
2018-06-19T12:22:18.370Z,23.95
2018-06-19T12:23:17.629Z,23.71
2018-06-19T12:24:17.886Z,23.57
2018-06-19T12:25:18.143Z,23.44
2018-06-19T12:26:18.408Z,23.46
2018-06-19T12:27:17.684Z,23.65
2018-06-19T12:28:17.945Z,23.91
2018-06-19T12:29:18.206Z,24.09
2018-06-19T12:30:18.470Z,24.01
2018-06-19T12:31:17.519Z,23.53
2018-06-19T12:32:17.777Z,23.65
2018-06-19T12:33:18.034Z,23.85
2018-06-19T12:34:18.293Z,23.85
2018-06-19T12:35:17.537Z,23.61
2018-06-19T12:36:17.801Z,23.62
2018-06-19T12:37:18.072Z,23.36
2018-06-19T12:38:18.451Z,23.27
2018-06-19T12:39:17.714Z,23.10
2018-06-19T12:40:17.976Z,23.33
2018-06-19T12:41:18.032Z,23.27
2018-06-19T12:42:18.290Z,23.18
2018-06-19T12:43:17.547Z,23.15
2018-06-19T12:44:17.808Z,23.33
2018-06-19T12:45:18.075Z,23.60
2018-06-19T12:46:18.330Z,23.43
2018-06-19T12:47:17.594Z,23.39
2018-06-19T12:48:17.859Z,23.39
2018-06-19T12:49:18.119Z,23.74
2018-06-19T12:50:18.387Z,24.04
2018-06-19T12:51:18.414Z,24.05
2018-06-19T12:52:17.666Z,24.26